Time;durP1;ratioP1;P1;durP2;ratioP2;P2;SDS_P1;SDS_P2;PMS_P1;PMS_P2;Temp;Humidity;BMP_temperature;BMP_pressure;BME280_temperature;BME280_humidity;BME280_pressure;Samples;Min_cycle;Max_cycle;Signal;HPM_P1;HPM_P2
2021/09/26 00:01:03;;;;;;;14.63;6.95;;;16.40;99.90;;;;;;5028495;28;20166;-61
2021/09/26 00:03:29;;;;;;;14.77;6.32;;;16.30;99.90;;;;;;5030200;28;20063;-60
2021/09/26 00:05:54;;;;;;;15.48;6.90;;;16.30;99.90;;;;;;5030083;28;20484;-59
2021/09/26 00:08:20;;;;;;;13.27;6.45;;;16.30;99.90;;;;;;5029173;28;20038;-60
2021/09/26 00:10:45;;;;;;;15.55;6.90;;;16.30;99.90;;;;;;5028103;28;20112;-62
2021/09/26 00:13:11;;;;;;;11.73;6.45;;;16.30;99.90;;;;;;5028767;28;20037;-61
2021/09/26 00:15:36;;;;;;;11.60;5.45;;;16.30;99.90;;;;;;5029425;28;20037;-60
2021/09/26 00:18:02;;;;;;;15.00;6.35;;;16.30;99.90;;;;;;5029033;28;20452;-62
2021/09/26 00:20:28;;;;;;;16.73;5.85;;;16.30;99.90;;;;;;5029074;28;20056;-60
2021/09/26 00:22:54;;;;;;;16.65;5.88;;;16.40;99.90;;;;;;5030450;28;20029;-62
2021/09/26 00:25:20;;;;;;;14.57;6.68;;;16.30;99.90;;;;;;5027787;28;20080;-62
2021/09/26 00:27:46;;;;;;;12.57;5.90;;;16.40;99.90;;;;;;5029145;28;20070;-61
2021/09/26 00:30:14;;;;;;;13.60;6.40;;;16.40;99.90;;;;;;5028278;28;20041;-60
2021/09/26 00:32:41;;;;;;;13.25;5.85;;;16.40;99.90;;;;;;5025996;28;20142;-61
2021/09/26 00:35:08;;;;;;;13.85;6.03;;;16.50;99.90;;;;;;5027888;28;20187;-59
2021/09/26 00:37:34;;;;;;;12.32;5.82;;;16.50;99.90;;;;;;5028815;28;20061;-60
2021/09/26 00:39:59;;;;;;;12.23;6.03;;;16.50;99.90;;;;;;5028715;28;20060;-60
2021/09/26 00:42:25;;;;;;;11.60;5.63;;;16.50;99.90;;;;;;5028396;28;20091;-60
2021/09/26 00:44:50;;;;;;;12.45;6.03;;;16.50;99.90;;;;;;5024893;28;20033;-60
2021/09/26 00:47:16;;;;;;;11.55;6.20;;;16.60;99.90;;;;;;5028064;28;20034;-63
2021/09/26 00:49:42;;;;;;;14.00;7.13;;;16.50;99.90;;;;;;5028653;28;20040;-61
2021/09/26 00:52:08;;;;;;;15.45;6.00;;;16.60;99.90;;;;;;5027260;28;20831;-62
2021/09/26 00:54:36;;;;;;;16.38;7.03;;;16.60;99.90;;;;;;5027004;28;20048;-61
2021/09/26 00:57:02;;;;;;;12.82;6.53;;;16.60;99.90;;;;;;5027401;28;20028;-60
2021/09/26 00:59:28;;;;;;;16.38;6.60;;;16.60;99.90;;;;;;5026092;28;20045;-61
2021/09/26 01:01:54;;;;;;;13.68;6.22;;;16.60;99.90;;;;;;5028413;28;20044;-61
2021/09/26 01:04:20;;;;;;;14.68;6.63;;;16.60;99.90;;;;;;5024176;28;20040;-61
2021/09/26 01:07:05;;;;;;;12.57;6.53;;;16.60;99.90;;;;;;5028683;28;20585;-61
2021/09/26 01:09:56;;;;;;;14.88;6.47;;;16.60;99.90;;;;;;5024148;28;20432;-62
2021/09/26 01:12:22;;;;;;;14.25;6.82;;;16.60;99.90;;;;;;5022713;28;20104;-59
2021/09/26 01:15:20;;;;;;;16.98;6.22;;;16.50;99.90;;;;;;5027157;28;20037;-60
2021/09/26 01:18:19;;;;;;;16.08;6.43;;;16.50;99.90;;;;;;5018770;28;20049;-60
2021/09/26 01:21:19;;;;;;;15.05;6.75;;;16.50;99.90;;;;;;5027636;28;20021;-60
2021/09/26 01:24:22;;;;;;;17.02;6.97;;;16.50;99.90;;;;;;5020238;28;20057;-61
2021/09/26 01:27:17;;;;;;;16.55;6.43;;;16.40;99.90;;;;;;5027881;28;20029;-61
2021/09/26 01:30:06;;;;;;;14.73;7.32;;;16.40;99.90;;;;;;5027079;28;20867;-60
2021/09/26 01:32:34;;;;;;;16.27;6.00;;;16.30;99.90;;;;;;5018671;28;20033;-62
2021/09/26 01:35:05;;;;;;;17.15;6.85;;;16.30;99.90;;;;;;5027017;28;20033;-61
2021/09/26 01:37:38;;;;;;;14.07;7.30;;;16.30;99.90;;;;;;5026741;28;20065;-60
2021/09/26 01:40:16;;;;;;;14.48;6.68;;;16.20;99.90;;;;;;5026696;28;20037;-60
2021/09/26 01:42:48;;;;;;;15.73;7.25;;;16.20;99.90;;;;;;5027884;28;20456;-62
2021/09/26 01:45:14;;;;;;;14.30;7.68;;;16.10;99.90;;;;;;5026789;28;20049;-60
2021/09/26 01:47:48;;;;;;;14.65;7.10;;;16.10;99.90;;;;;;5027821;28;20045;-63
2021/09/26 01:50:16;;;;;;;14.23;6.15;;;16.00;99.90;;;;;;5027893;28;20450;-63
2021/09/26 01:52:46;;;;;;;14.95;6.97;;;15.90;99.90;;;;;;5027733;28;20121;-61
2021/09/26 01:55:13;;;;;;;17.70;8.05;;;15.90;99.90;;;;;;5028173;28;20119;-61
2021/09/26 01:57:40;;;;;;;14.73;7.30;;;15.90;99.90;;;;;;5028588;28;20044;-59
2021/09/26 02:00:09;;;;;;;17.73;7.15;;;15.90;99.90;;;;;;5030871;28;20029;-62
2021/09/26 02:02:35;;;;;;;17.50;7.45;;;15.90;99.90;;;;;;5031072;28;20041;-62
2021/09/26 02:05:02;;;;;;;15.57;6.60;;;15.80;99.90;;;;;;5031697;28;20087;-61
2021/09/26 02:07:30;;;;;;;15.20;6.75;;;15.80;99.90;;;;;;5028317;28;20037;-59
2021/09/26 02:09:56;;;;;;;19.10;7.20;;;15.70;99.90;;;;;;5029230;28;20029;-62
2021/09/26 02:12:24;;;;;;;18.38;7.95;;;15.70;99.90;;;;;;5029572;28;20028;-62
2021/09/26 02:14:51;;;;;;;18.33;7.90;;;15.70;99.90;;;;;;5029765;28;20539;-63
2021/09/26 02:17:17;;;;;;;15.63;7.00;;;15.60;99.90;;;;;;5026964;28;20078;-60
2021/09/26 02:19:47;;;;;;;14.98;6.85;;;15.50;99.90;;;;;;5030070;28;20040;-62
2021/09/26 02:22:14;;;;;;;16.73;7.30;;;15.50;99.90;;;;;;5031121;28;20517;-60
2021/09/26 02:24:40;;;;;;;13.45;6.85;;;15.50;99.90;;;;;;5030684;28;20548;-59
2021/09/26 02:27:06;;;;;;;14.63;6.75;;;15.50;99.90;;;;;;5031435;28;20041;-60
2021/09/26 02:29:33;;;;;;;15.55;7.38;;;15.50;99.90;;;;;;5030703;28;20051;-60
2021/09/26 02:31:58;;;;;;;14.13;6.90;;;15.50;99.90;;;;;;5030820;28;20037;-62
2021/09/26 02:34:24;;;;;;;13.45;6.63;;;15.60;99.90;;;;;;5029078;28;20041;-62
2021/09/26 02:36:50;;;;;;;17.73;7.78;;;15.50;99.90;;;;;;5028822;28;20088;-64
2021/09/26 02:39:18;;;;;;;13.90;6.55;;;15.50;99.90;;;;;;5029599;28;20153;-60
2021/09/26 02:41:55;;;;;;;14.73;7.00;;;15.50;99.90;;;;;;5030398;28;20036;-59
2021/09/26 02:44:46;;;;;;;24.25;7.28;;;15.50;99.90;;;;;;5027867;28;20045;-61
2021/09/26 02:47:17;;;;;;;15.85;7.75;;;15.50;99.90;;;;;;5027302;28;20025;-59
2021/09/26 02:49:42;;;;;;;;;;;15.50;99.90;;;;;;5031091;28;20477;-60
2021/09/26 02:52:10;;;;;;;17.73;8.02;;;15.50;99.90;;;;;;5030375;28;19968;-61
2021/09/26 02:54:39;;;;;;;14.75;7.07;;;15.40;99.90;;;;;;5030495;28;20064;-60
2021/09/26 02:57:06;;;;;;;20.08;7.55;;;15.40;99.90;;;;;;5030127;28;20525;-63
2021/09/26 02:59:32;;;;;;;14.45;7.55;;;15.40;99.90;;;;;;5029967;28;20077;-60
2021/09/26 03:01:58;;;;;;;22.13;7.80;;;15.30;99.90;;;;;;5029188;28;20192;-60
2021/09/26 03:04:24;;;;;;;15.05;7.53;;;15.40;99.90;;;;;;5030608;28;20037;-60
2021/09/26 03:06:49;;;;;;;14.73;6.57;;;15.40;99.90;;;;;;5030390;28;20036;-64
2021/09/26 03:09:15;;;;;;;15.55;7.40;;;15.50;99.90;;;;;;5029593;28;20040;-59
2021/09/26 03:11:41;;;;;;;14.52;6.85;;;15.50;99.90;;;;;;5030354;28;20026;-61
2021/09/26 03:14:07;;;;;;;13.48;7.15;;;15.60;99.90;;;;;;5030039;28;21384;-61
2021/09/26 03:16:32;;;;;;;19.17;7.10;;;15.70;99.90;;;;;;5030313;28;20517;-60
2021/09/26 03:18:58;;;;;;;13.35;6.53;;;15.70;99.90;;;;;;5028301;28;20056;-63
2021/09/26 03:21:27;;;;;;;17.08;7.43;;;15.70;99.90;;;;;;5030006;28;20042;-61
2021/09/26 03:23:53;;;;;;;16.48;6.88;;;15.70;99.90;;;;;;5030274;28;20088;-60
2021/09/26 03:26:18;;;;;;;13.27;6.32;;;15.70;99.90;;;;;;5028399;28;20037;-61
2021/09/26 03:28:44;;;;;;;15.18;6.60;;;15.70;99.90;;;;;;5030107;28;20447;-61
2021/09/26 03:31:09;;;;;;;12.88;7.00;;;15.70;99.90;;;;;;5028187;28;20117;-59
2021/09/26 03:33:35;;;;;;;14.32;6.38;;;15.80;99.90;;;;;;5030008;28;20196;-63
2021/09/26 03:36:00;;;;;;;14.15;6.63;;;15.70;99.90;;;;;;5029272;28;20060;-60
2021/09/26 03:38:26;;;;;;;11.50;6.38;;;15.70;99.90;;;;;;5030050;28;20049;-61
2021/09/26 03:40:52;;;;;;;11.95;6.50;;;15.80;99.90;;;;;;5029829;28;20041;-60
2021/09/26 03:43:17;;;;;;;13.65;6.88;;;15.80;99.90;;;;;;5029497;28;20049;-62
2021/09/26 03:45:49;;;;;;;14.18;7.15;;;15.80;99.90;;;;;;5029988;28;20037;-60
2021/09/26 03:48:22;;;;;;;14.38;6.20;;;15.80;99.90;;;;;;5026053;28;20400;-60
2021/09/26 03:50:49;;;;;;;13.65;6.72;;;15.80;99.90;;;;;;5029604;28;20037;-60
2021/09/26 03:53:15;;;;;;;13.65;6.22;;;15.80;99.90;;;;;;5029107;28;20049;-61
2021/09/26 03:55:41;;;;;;;17.48;6.05;;;15.80;99.90;;;;;;5029771;28;20504;-61
2021/09/26 03:58:07;;;;;;;22.45;7.45;;;15.80;99.90;;;;;;5029035;28;20030;-61
2021/09/26 04:00:32;;;;;;;15.80;6.32;;;15.80;99.90;;;;;;5028950;28;20451;-63
2021/09/26 04:02:58;;;;;;;16.25;6.90;;;15.80;99.90;;;;;;5026973;28;22129;-62
2021/09/26 04:05:24;;;;;;;16.83;6.90;;;15.80;99.90;;;;;;5027300;28;20676;-60
2021/09/26 04:07:50;;;;;;;15.85;6.00;;;15.80;99.90;;;;;;5029489;28;20109;-61
2021/09/26 04:10:16;;;;;;;16.38;6.70;;;15.70;99.90;;;;;;5028899;28;20581;-61
2021/09/26 04:12:41;;;;;;;19.30;7.00;;;15.70;99.90;;;;;;5029453;28;20040;-61
2021/09/26 04:15:08;;;;;;;14.25;6.60;;;15.70;99.90;;;;;;5029185;28;20030;-61
2021/09/26 04:17:34;;;;;;;14.88;6.97;;;15.70;99.90;;;;;;5027860;28;20113;-61
2021/09/26 04:20:00;;;;;;;14.25;6.82;;;15.70;99.90;;;;;;5028648;28;20422;-61
2021/09/26 04:22:26;;;;;;;13.20;6.00;;;15.70;99.90;;;;;;5028905;28;20055;-60
2021/09/26 04:24:51;;;;;;;15.60;5.93;;;15.60;99.90;;;;;;5028099;28;20037;-60
2021/09/26 04:27:17;;;;;;;15.93;6.15;;;15.60;99.90;;;;;;5028953;28;20026;-61
2021/09/26 04:29:43;;;;;;;13.48;6.18;;;15.60;99.90;;;;;;5029071;28;20026;-63
2021/09/26 04:32:08;;;;;;;13.15;6.70;;;15.60;99.90;;;;;;5026864;28;20113;-60
2021/09/26 04:34:34;;;;;;;10.27;5.68;;;15.60;99.90;;;;;;5028610;28;20784;-60
2021/09/26 04:37:02;;;;;;;17.40;6.53;;;15.60;99.90;;;;;;5029201;28;20624;-60
2021/09/26 04:39:28;;;;;;;13.40;6.47;;;15.60;99.90;;;;;;5028518;28;20381;-60
2021/09/26 04:41:53;;;;;;;13.82;6.70;;;15.60;99.90;;;;;;5029021;28;20592;-61
2021/09/26 04:44:19;;;;;;;19.67;8.05;;;15.60;99.90;;;;;;5028660;28;20029;-59
2021/09/26 04:46:45;;;;;;;14.35;7.07;;;15.70;99.90;;;;;;5029181;28;20040;-61
2021/09/26 04:49:10;;;;;;;15.80;6.57;;;15.70;99.90;;;;;;5028430;28;20033;-60
2021/09/26 04:51:36;;;;;;;14.77;7.30;;;15.70;99.90;;;;;;5028905;28;20030;-60
2021/09/26 04:54:01;;;;;;;16.55;7.18;;;15.70;99.90;;;;;;5028912;28;20081;-61
2021/09/26 04:56:27;;;;;;;16.23;6.50;;;15.70;99.90;;;;;;5028559;28;20038;-59
2021/09/26 04:58:53;;;;;;;15.15;6.75;;;15.70;99.90;;;;;;5028191;28;20032;-59
2021/09/26 05:01:18;;;;;;;17.27;6.72;;;15.70;99.90;;;;;;5028469;28;20129;-62
2021/09/26 05:03:44;;;;;;;18.92;7.95;;;15.70;99.90;;;;;;5028540;28;20065;-63
2021/09/26 05:06:09;;;;;;;15.45;6.35;;;15.80;99.90;;;;;;5027649;28;20065;-62
2021/09/26 05:08:35;;;;;;;14.05;6.15;;;15.70;99.90;;;;;;5028163;28;20029;-60
2021/09/26 05:11:01;;;;;;;15.20;7.45;;;15.70;99.90;;;;;;5028823;28;20497;-60
2021/09/26 05:13:27;;;;;;;15.30;6.25;;;15.80;99.90;;;;;;5028037;28;20121;-61
2021/09/26 05:15:52;;;;;;;15.75;6.82;;;15.80;99.90;;;;;;5029025;28;20049;-61
2021/09/26 05:18:18;;;;;;;18.30;6.97;;;15.80;99.90;;;;;;5027556;28;20032;-64
2021/09/26 05:20:44;;;;;;;11.77;6.45;;;15.70;99.90;;;;;;5028658;28;20064;-62
2021/09/26 05:23:10;;;;;;;12.02;6.28;;;15.70;99.90;;;;;;5027332;28;20034;-63
2021/09/26 05:25:35;;;;;;;15.48;7.25;;;15.70;99.90;;;;;;5028371;28;20048;-62
2021/09/26 05:28:02;;;;;;;15.65;6.78;;;15.70;99.90;;;;;;5028554;28;20489;-60
2021/09/26 05:30:30;;;;;;;12.45;6.07;;;15.70;99.90;;;;;;5026910;28;20431;-60
2021/09/26 05:32:55;;;;;;;15.10;6.70;;;15.70;99.90;;;;;;5029524;28;20030;-62
2021/09/26 05:35:21;;;;;;;14.20;6.50;;;15.70;99.90;;;;;;5029675;28;20038;-60
2021/09/26 05:37:47;;;;;;;12.75;6.80;;;15.70;99.90;;;;;;5032331;28;20095;-61
2021/09/26 05:40:13;;;;;;;19.98;7.00;;;15.70;99.90;;;;;;5030640;28;20052;-61
2021/09/26 05:42:39;;;;;;;15.95;8.13;;;15.70;99.90;;;;;;5031766;28;20037;-62
2021/09/26 05:45:05;;;;;;;13.18;6.43;;;15.70;99.90;;;;;;5032503;28;20504;-60
2021/09/26 05:47:31;;;;;;;15.05;7.13;;;15.70;99.90;;;;;;5030314;28;20040;-60
2021/09/26 05:49:56;;;;;;;15.07;7.28;;;15.60;99.90;;;;;;5032161;28;20030;-60
2021/09/26 05:52:22;;;;;;;16.17;7.53;;;15.60;99.90;;;;;;5030335;28;20029;-62
2021/09/26 05:54:48;;;;;;;21.02;7.78;;;15.50;99.90;;;;;;5032244;28;20086;-59
2021/09/26 05:57:13;;;;;;;16.25;7.72;;;15.50;99.90;;;;;;5032206;28;20457;-62
2021/09/26 05:59:39;;;;;;;17.00;8.00;;;15.50;99.90;;;;;;5031045;28;20042;-62
2021/09/26 06:02:12;;;;;;;16.50;8.15;;;15.50;99.90;;;;;;5030499;28;20102;-60
2021/09/26 06:04:38;;;;;;;15.65;6.85;;;15.50;99.90;;;;;;5028601;28;20064;-62
2021/09/26 06:07:04;;;;;;;17.98;8.18;;;15.50;99.90;;;;;;5031538;28;20095;-61
2021/09/26 06:09:30;;;;;;;14.65;7.03;;;15.40;99.90;;;;;;5031558;28;20038;-62
2021/09/26 06:11:55;;;;;;;19.42;8.27;;;15.50;99.90;;;;;;5031348;28;20064;-62
2021/09/26 06:14:21;;;;;;;18.20;7.90;;;15.40;99.90;;;;;;5031853;28;20037;-63
2021/09/26 06:16:47;;;;;;;16.45;8.20;;;15.50;99.90;;;;;;5031847;28;20389;-61
2021/09/26 06:19:13;;;;;;;19.23;8.30;;;15.50;99.90;;;;;;5031038;28;20099;-60
2021/09/26 06:21:43;;;;;;;19.10;7.80;;;15.40;99.90;;;;;;5031603;28;20548;-60
2021/09/26 06:24:10;;;;;;;15.30;8.23;;;15.40;99.90;;;;;;5029880;28;20036;-60
2021/09/26 06:26:35;;;;;;;15.50;7.63;;;15.40;99.90;;;;;;5031803;28;20302;-62
2021/09/26 06:29:01;;;;;;;15.35;7.40;;;15.50;99.90;;;;;;5026709;28;20490;-62
2021/09/26 06:31:26;;;;;;;15.27;8.02;;;15.50;99.90;;;;;;5031422;28;20152;-60
2021/09/26 06:33:52;;;;;;;16.08;8.07;;;15.50;99.90;;;;;;5029887;28;20043;-60
2021/09/26 06:36:17;;;;;;;17.58;8.68;;;15.50;99.90;;;;;;5029263;28;20033;-63
2021/09/26 06:38:43;;;;;;;21.42;9.27;;;15.50;99.90;;;;;;5030072;28;20045;-60
2021/09/26 06:41:11;;;;;;;21.73;8.77;;;15.40;99.90;;;;;;5030580;28;20048;-61
2021/09/26 06:43:37;;;;;;;17.67;8.52;;;15.40;99.90;;;;;;5028838;28;20113;-63
2021/09/26 06:46:03;;;;;;;20.13;9.05;;;15.40;99.90;;;;;;5030616;28;20121;-62
2021/09/26 06:48:28;;;;;;;21.10;9.15;;;15.40;99.90;;;;;;5030735;28;20052;-62
2021/09/26 06:50:54;;;;;;;14.82;8.75;;;15.40;99.90;;;;;;5030927;28;20041;-62
2021/09/26 06:53:20;;;;;;;19.80;9.80;;;15.50;99.90;;;;;;5030409;28;20032;-60
2021/09/26 06:55:45;;;;;;;19.38;8.63;;;15.50;99.90;;;;;;5035687;28;20734;-60
2021/09/26 06:58:11;;;;;;;19.05;8.65;;;15.60;99.90;;;;;;5035511;28;20128;-60
2021/09/26 07:00:36;;;;;;;18.02;9.40;;;15.60;99.90;;;;;;5035226;28;20041;-63
2021/09/26 07:03:02;;;;;;;18.10;9.68;;;15.60;99.90;;;;;;5030924;28;20363;-61
2021/09/26 07:05:28;;;;;;;16.58;8.30;;;15.60;99.90;;;;;;5037244;28;20140;-61
2021/09/26 07:07:53;;;;;;;17.27;8.45;;;15.60;99.90;;;;;;5033820;28;20124;-63
2021/09/26 07:10:19;;;;;;;17.67;8.70;;;15.70;99.90;;;;;;5032608;28;20037;-60
2021/09/26 07:12:46;;;;;;;16.92;8.55;;;15.70;99.90;;;;;;5036580;28;20040;-61
2021/09/26 07:15:12;;;;;;;21.08;9.15;;;15.60;99.90;;;;;;5033015;28;20049;-60
2021/09/26 07:17:38;;;;;;;18.25;8.52;;;15.60;99.90;;;;;;5033191;28;20033;-60
2021/09/26 07:20:04;;;;;;;15.73;8.23;;;15.60;99.90;;;;;;5030213;28;20037;-60
2021/09/26 07:22:30;;;;;;;19.30;9.02;;;15.60;99.90;;;;;;5030716;28;20094;-60
2021/09/26 07:24:57;;;;;;;17.85;8.30;;;15.70;99.90;;;;;;5030587;28;20033;-61
2021/09/26 07:27:24;;;;;;;19.88;9.52;;;15.70;99.90;;;;;;5029956;28;20725;-59
2021/09/26 07:29:50;;;;;;;18.88;8.55;;;15.70;99.90;;;;;;5019351;28;20044;-63
2021/09/26 07:32:16;;;;;;;20.40;9.30;;;15.80;99.90;;;;;;5027334;28;20033;-61
2021/09/26 07:34:43;;;;;;;21.63;9.65;;;15.80;99.90;;;;;;5027361;28;20542;-61
2021/09/26 07:37:09;;;;;;;19.00;9.20;;;15.90;99.90;;;;;;5026679;28;20040;-60
2021/09/26 07:39:37;;;;;;;19.35;8.68;;;16.00;99.90;;;;;;5026592;28;20037;-60
2021/09/26 07:42:04;;;;;;;17.25;8.65;;;16.00;99.90;;;;;;5022508;28;20033;-60
2021/09/26 07:44:30;;;;;;;16.13;9.10;;;16.00;99.90;;;;;;5025109;28;20037;-61
2021/09/26 07:46:55;;;;;;;18.25;7.88;;;16.10;99.90;;;;;;5027165;28;20036;-63
2021/09/26 07:49:21;;;;;;;17.48;8.63;;;16.20;99.90;;;;;;5025547;28;20147;-60
2021/09/26 07:51:47;;;;;;;19.80;9.45;;;16.20;99.90;;;;;;5025876;28;20069;-61
2021/09/26 07:54:16;;;;;;;15.25;7.93;;;16.30;99.90;;;;;;5026375;28;20425;-61
2021/09/26 07:56:43;;;;;;;17.60;9.40;;;16.30;99.90;;;;;;5026886;28;20057;-62
2021/09/26 07:59:09;;;;;;;18.92;8.48;;;16.40;99.90;;;;;;5026318;28;20037;-61
2021/09/26 08:01:34;;;;;;;15.43;8.60;;;16.40;99.90;;;;;;5027217;28;20040;-60
2021/09/26 08:04:00;;;;;;;18.58;8.50;;;16.40;99.90;;;;;;5025128;28;20037;-60
2021/09/26 08:06:26;;;;;;;18.67;9.07;;;16.50;99.90;;;;;;5022784;28;20045;-63
2021/09/26 08:08:52;;;;;;;18.73;9.25;;;16.50;99.90;;;;;;5025962;28;20055;-63
2021/09/26 08:11:17;;;;;;;16.65;9.63;;;16.50;99.90;;;;;;5026388;28;20508;-62
2021/09/26 08:13:43;;;;;;;20.05;9.00;;;16.50;99.90;;;;;;5026712;28;20065;-60
2021/09/26 08:16:09;;;;;;;16.90;8.50;;;16.60;99.90;;;;;;5025988;28;20734;-60
2021/09/26 08:18:34;;;;;;;16.42;9.02;;;16.70;99.90;;;;;;5026451;28;20107;-61
2021/09/26 08:21:00;;;;;;;15.88;8.25;;;16.80;99.90;;;;;;5026979;28;20044;-63
2021/09/26 08:23:25;;;;;;;16.08;8.43;;;17.00;99.90;;;;;;5026006;28;20042;-62
2021/09/26 08:25:51;;;;;;;17.13;8.40;;;17.10;99.90;;;;;;5034281;28;20037;-60
2021/09/26 08:28:18;;;;;;;19.73;8.27;;;17.10;99.90;;;;;;5035498;28;20033;-60
2021/09/26 08:30:44;;;;;;;18.15;9.32;;;17.10;99.90;;;;;;5034392;28;20120;-60
2021/09/26 08:33:10;;;;;;;22.17;8.68;;;17.20;99.90;;;;;;5030811;28;20112;-60
2021/09/26 08:35:36;;;;;;;21.45;8.85;;;17.30;99.90;;;;;;5030762;28;20038;-61
2021/09/26 08:38:03;;;;;;;17.27;8.57;;;17.40;99.90;;;;;;5025085;28;20049;-62
2021/09/26 08:40:28;;;;;;;20.48;8.73;;;17.40;99.90;;;;;;5027686;28;20037;-64
2021/09/26 08:42:55;;;;;;;15.02;8.48;;;17.50;99.90;;;;;;5029079;28;20029;-60
2021/09/26 08:45:21;;;;;;;14.55;8.05;;;17.60;99.90;;;;;;5028743;28;20025;-61
2021/09/26 08:47:48;;;;;;;15.80;8.10;;;17.70;99.90;;;;;;5029043;28;20684;-60
2021/09/26 08:50:17;;;;;;;15.98;8.32;;;17.80;99.90;;;;;;5028789;28;20061;-60
2021/09/26 08:52:44;;;;;;;19.23;8.63;;;17.90;99.90;;;;;;5028477;28;20032;-62
2021/09/26 08:55:12;;;;;;;16.08;8.65;;;18.00;99.90;;;;;;5029128;28;20481;-60
2021/09/26 08:57:38;;;;;;;15.50;7.93;;;18.00;99.90;;;;;;5028651;28;20034;-60
2021/09/26 09:00:09;;;;;;;21.13;8.20;;;18.10;99.90;;;;;;5028480;28;20609;-61
2021/09/26 09:02:35;;;;;;;15.63;8.30;;;18.30;99.90;;;;;;5028972;28;20052;-59
2021/09/26 09:05:03;;;;;;;15.52;8.38;;;18.40;99.90;;;;;;5028713;28;20038;-59
2021/09/26 09:07:29;;;;;;;16.40;8.82;;;18.50;99.90;;;;;;5029676;28;20029;-59
2021/09/26 09:09:59;;;;;;;18.00;7.95;;;18.60;99.90;;;;;;5032378;28;20030;-60
2021/09/26 09:12:32;;;;;;;15.73;8.00;;;18.60;99.90;;;;;;5029329;28;20100;-61
2021/09/26 09:15:00;;;;;;;43.95;8.52;;;18.60;99.90;;;;;;5029348;28;20029;-59
2021/09/26 09:17:33;;;;;;;16.88;7.25;;;18.70;99.90;;;;;;5033250;28;20041;-62
2021/09/26 09:20:24;;;;;;;15.30;7.85;;;18.80;99.90;;;;;;5024240;28;20565;-60
2021/09/26 09:23:09;;;;;;;13.43;7.85;;;19.00;99.90;;;;;;5031620;28;20034;-61
2021/09/26 09:25:48;;;;;;;14.05;7.28;;;19.10;99.90;;;;;;5027538;28;20068;-59
2021/09/26 09:28:17;;;;;;;12.27;7.35;;;19.20;99.90;;;;;;5030310;28;20033;-61
2021/09/26 09:30:54;;;;;;;16.48;8.32;;;19.40;99.90;;;;;;5030909;28;20136;-61
2021/09/26 09:33:22;;;;;;;21.20;8.45;;;19.60;99.90;;;;;;5028522;28;20047;-63
2021/09/26 09:35:53;;;;;;;14.50;7.43;;;19.80;99.90;;;;;;5029478;28;20187;-63
2021/09/26 09:38:29;;;;;;;17.58;8.00;;;19.80;99.90;;;;;;5031047;28;20041;-61
2021/09/26 09:40:58;;;;;;;16.48;8.55;;;19.90;99.90;;;;;;5028641;28;20080;-63
2021/09/26 09:43:27;;;;;;;14.35;7.93;;;20.00;99.90;;;;;;5028614;28;20068;-61
2021/09/26 09:45:57;;;;;;;13.50;7.25;;;20.20;99.90;;;;;;5029365;28;20036;-61
2021/09/26 09:48:25;;;;;;;14.10;8.18;;;20.30;99.90;;;;;;5026847;28;20029;-61
2021/09/26 09:51:06;;;;;;;13.55;7.90;;;20.50;99.90;;;;;;5026906;28;20030;-61
2021/09/26 09:53:39;;;;;;;20.20;8.70;;;20.40;99.90;;;;;;5029464;28;20029;-60
2021/09/26 09:56:20;;;;;;;18.23;8.80;;;20.50;99.90;;;;;;5032345;28;20042;-62
2021/09/26 09:58:50;;;;;;;18.33;8.55;;;20.40;99.90;;;;;;5031287;28;20045;-60
2021/09/26 10:01:18;;;;;;;;;;;20.50;99.90;;;;;;5032395;28;20033;-61
2021/09/26 10:03:52;;;;;;;15.52;7.82;;;20.60;99.90;;;;;;5028387;28;20396;-61
2021/09/26 10:06:36;;;;;;;22.38;8.57;;;20.60;99.90;;;;;;5030763;28;20034;-60
2021/09/26 10:09:16;;;;;;;16.63;7.93;;;20.70;99.90;;;;;;5029086;28;20390;-61
2021/09/26 10:11:59;;;;;;;14.90;8.45;;;20.70;99.90;;;;;;5031030;28;20037;-60
2021/09/26 10:14:27;;;;;;;15.75;8.77;;;20.80;99.90;;;;;;5028525;28;20117;-61
2021/09/26 10:16:54;;;;;;;16.90;8.65;;;20.90;99.90;;;;;;5031254;28;20041;-61
2021/09/26 10:19:22;;;;;;;13.27;7.72;;;20.90;99.90;;;;;;5029085;28;20112;-60
2021/09/26 10:21:53;;;;;;;16.95;8.15;;;20.90;99.90;;;;;;5026832;28;20041;-61
2021/09/26 10:24:24;;;;;;;13.02;7.38;;;21.00;99.90;;;;;;5027627;28;20037;-63
2021/09/26 10:26:52;;;;;;;22.75;9.75;;;21.10;99.90;;;;;;5026154;28;20029;-60
2021/09/26 10:29:22;;;;;;;17.45;8.60;;;21.00;99.90;;;;;;5027233;28;20026;-61
2021/09/26 10:31:49;;;;;;;17.23;8.65;;;20.90;99.90;;;;;;5027232;28;20057;-61
2021/09/26 10:34:15;;;;;;;18.35;8.45;;;20.90;99.90;;;;;;5031290;28;20191;-61
2021/09/26 10:36:42;;;;;;;16.73;7.43;;;20.90;99.90;;;;;;5029509;28;20030;-60
2021/09/26 10:39:08;;;;;;;17.00;7.72;;;21.10;99.90;;;;;;5030571;28;20048;-60
2021/09/26 10:41:35;;;;;;;21.00;9.38;;;21.10;99.90;;;;;;5031896;28;20128;-61
2021/09/26 10:44:31;;;;;;;17.27;8.90;;;21.20;99.90;;;;;;5031086;28;20501;-61
2021/09/26 10:47:17;;;;;;;15.45;7.43;;;21.40;99.90;;;;;;5032247;28;20033;-61
2021/09/26 10:49:48;;;;;;;17.25;8.55;;;21.60;99.90;;;;;;5030946;28;20037;-60
2021/09/26 10:52:35;;;;;;;11.20;6.93;;;21.80;99.90;;;;;;5030930;28;20037;-61
2021/09/26 10:55:18;;;;;;;14.10;6.95;;;21.90;99.90;;;;;;5028257;28;20559;-60
2021/09/26 10:57:49;;;;;;;9.80;6.47;;;22.00;99.90;;;;;;5030737;28;20540;-61
2021/09/26 11:00:31;;;;;;;11.13;6.55;;;22.10;99.90;;;;;;5029838;28;20037;-60
2021/09/26 11:03:12;;;;;;;10.02;6.18;;;22.00;99.90;;;;;;5026596;28;20036;-61
2021/09/26 11:05:43;;;;;;;9.18;5.53;;;21.90;99.90;;;;;;5030856;28;20493;-61
2021/09/26 11:08:36;;;;;;;14.18;5.65;;;21.90;99.90;;;;;;5029982;28;20480;-61
2021/09/26 11:11:04;;;;;;;8.68;5.28;;;21.90;99.90;;;;;;5028053;28;20038;-60
2021/09/26 11:13:31;;;;;;;11.40;5.70;;;21.90;99.90;;;;;;5030596;28;20485;-61
2021/09/26 11:16:15;;;;;;;9.63;5.72;;;22.10;99.90;;;;;;5029886;28;20061;-61
2021/09/26 11:18:58;;;;;;;10.38;5.97;;;22.10;99.90;;;;;;5032852;28;20037;-61
2021/09/26 11:21:38;;;;;;;19.10;6.25;;;22.00;99.90;;;;;;5039220;28;20125;-60
2021/09/26 11:24:22;;;;;;;;;;;22.00;99.90;;;;;;5037312;28;20120;-61
2021/09/26 11:27:09;;;;;;;16.30;6.82;;;22.10;99.90;;;;;;5035860;28;19955;-61
2021/09/26 11:29:38;;;;;;;12.15;5.95;;;22.00;99.90;;;;;;5032979;28;20495;-61
2021/09/26 11:32:27;;;;;;;14.90;7.00;;;21.90;99.90;;;;;;5033295;28;20045;-61
2021/09/26 11:34:55;;;;;;;11.65;6.10;;;21.90;99.90;;;;;;5028824;28;20044;-61
2021/09/26 11:37:40;;;;;;;16.30;7.18;;;21.90;99.90;;;;;;5034457;28;20033;-61
2021/09/26 11:40:15;;;;;;;11.45;6.57;;;21.90;99.90;;;;;;5037441;28;20522;-62
2021/09/26 11:42:42;;;;;;;13.45;6.40;;;21.90;99.90;;;;;;5032466;28;20727;-60
2021/09/26 11:45:15;;;;;;;14.07;6.97;;;22.00;99.90;;;;;;5028575;28;20048;-61
2021/09/26 11:47:41;;;;;;;11.93;6.97;;;22.10;99.90;;;;;;5029792;28;20029;-60
2021/09/26 11:50:11;;;;;;;12.85;6.45;;;22.00;99.90;;;;;;5037891;28;20033;-60
2021/09/26 11:52:38;;;;;;;12.05;6.45;;;22.00;99.90;;;;;;5034069;28;20033;-61
2021/09/26 11:55:04;;;;;;;13.10;6.93;;;22.10;99.90;;;;;;5035907;28;20056;-62
2021/09/26 11:57:30;;;;;;;12.77;6.40;;;22.10;99.90;;;;;;5029912;28;20041;-60
2021/09/26 11:59:56;;;;;;;10.93;6.53;;;22.20;99.90;;;;;;5019745;28;20040;-61
2021/09/26 12:02:21;;;;;;;11.35;5.88;;;22.20;99.90;;;;;;5025925;28;20032;-61
2021/09/26 12:04:48;;;;;;;12.15;5.30;;;22.20;99.90;;;;;;5026896;28;20148;-60
2021/09/26 12:07:13;;;;;;;11.27;6.00;;;22.40;99.90;;;;;;5027176;28;20124;-61
2021/09/26 12:09:47;;;;;;;11.18;5.97;;;22.40;99.90;;;;;;5025868;28;20160;-61
2021/09/26 12:12:19;;;;;;;9.73;5.25;;;22.40;99.90;;;;;;5022372;28;20037;-60
2021/09/26 12:14:51;;;;;;;9.63;5.10;;;22.50;99.90;;;;;;5023881;28;20041;-60
2021/09/26 12:17:27;;;;;;;10.52;5.57;;;22.40;99.90;;;;;;5022714;28;20037;-62
2021/09/26 12:20:02;;;;;;;10.00;5.50;;;22.50;99.90;;;;;;5026487;28;20191;-62
2021/09/26 12:22:29;;;;;;;9.55;5.18;;;22.40;99.90;;;;;;5026500;28;20033;-62
2021/09/26 12:25:25;;;;;;;11.13;4.82;;;22.40;99.90;;;;;;5026735;28;20041;-61
2021/09/26 12:27:55;;;;;;;11.18;5.43;;;22.40;99.90;;;;;;5024044;28;20034;-61
2021/09/26 12:30:23;;;;;;;;;;;22.40;99.90;;;;;;5025972;28;20036;-60
2021/09/26 12:32:55;;;;;;;7.88;4.57;;;22.40;99.90;;;;;;5024919;28;19920;-60
2021/09/26 12:35:33;;;;;;;9.25;4.68;;;22.40;99.90;;;;;;5025870;28;20037;-60
2021/09/26 12:38:03;;;;;;;9.15;4.70;;;22.40;99.90;;;;;;5026007;28;20501;-61
2021/09/26 12:40:35;;;;;;;6.47;3.97;;;22.40;99.90;;;;;;5026048;28;20044;-61
2021/09/26 12:43:03;;;;;;;10.80;4.28;;;22.40;99.90;;;;;;5025553;28;20100;-62
2021/09/26 12:45:43;;;;;;;9.20;5.28;;;22.30;99.90;;;;;;5026090;28;20040;-60
2021/09/26 12:48:16;;;;;;;11.35;5.57;;;22.30;99.90;;;;;;5025971;28;20355;-62